AGROMETEOROLOŠKI PORTAL

vinorodna pokrajina

Temelj dobrega kmetovanja

Pregled podatkov za lokacijo ZADLOG - ARSO, meteorološka postaja 157

Pregled senzorjev na lokaciji

ID Ime Zadnja
vrednost
Datum in čas
meritve
(lokalni čas)
Tip
senzorja
6001 Padavine (mm) 0,1 mm 29.9.2022 14:00 ARSO
6003 Relativna zračna vlaga (2 m) (% RH) 98 % RH 29.9.2022 14:00 ARSO
6002 Temperatura (2 m) (°C) 11,1 °C 29.9.2022 14:00 ARSO

Pregled podatkov zadnjih 24 ur

Zap.
št.
Datum in čas
(lokalni čas)
ZADLOG - ARSO
Padavine Relativna
zračna
vlaga
(2
m)
Temperatura
(2
m)
1 29.9.2022 14:00 0,1 98 11,1
2 29.9.2022 13:30 0 98 10,9
3 29.9.2022 13:00 0,1 98 10,8
4 29.9.2022 12:30 9,3 98 10,6
5 29.9.2022 12:00 0,8 98 10,6
6 29.9.2022 11:30 0,8 98 10,5
7 29.9.2022 11:00 7 98 10,3
8 29.9.2022 10:30 13 98 10,4
9 29.9.2022 10:00 4,3 98 10,6
10 29.9.2022 09:30 1,2 98 10,4
11 29.9.2022 09:00 17,2 98,3 10,4
12 29.9.2022 08:30 6,6 98,3 10,5
13 29.9.2022 08:00 11,1 99 10,5
14 29.9.2022 07:30 0,6 98,7 10,6
15 29.9.2022 07:00 1,6 99 10,6
16 29.9.2022 06:30 0 98,7 10,5
17 29.9.2022 06:00 0,1 99 10,5
18 29.9.2022 05:30 0 98,3 10,5
19 29.9.2022 05:00 3,3 98,3 10,4
20 29.9.2022 04:30 0,1 98,3 10,4
21 29.9.2022 04:00 0 98 10,4
22 29.9.2022 03:30 0 98 10,4
23 29.9.2022 03:00 0 98 10,4
24 29.9.2022 02:30 0 98 10,4
25 29.9.2022 02:00 0 98 10,3
26 29.9.2022 01:30 0 97,7 10,2
27 29.9.2022 01:00 0 97 10,5
28 29.9.2022 00:30 0 97 10,6
29 29.9.2022 00:00 0 97 10,7
30 28.9.2022 23:30 0,1 97 10,9
31 28.9.2022 23:00 0,3 97 11,2
32 28.9.2022 22:30 0,8 97 11,4
33 28.9.2022 22:00 1,5 96 11,7
34 28.9.2022 21:30 1,9 96 11,7
35 28.9.2022 21:00 2,1 95,7 11,7
36 28.9.2022 20:30 0,2 93,3 11,9
37 28.9.2022 20:00 0,1 88 12,5
38 28.9.2022 19:30 0,7 86,7 13
39 28.9.2022 19:00 0 86 13,2
40 28.9.2022 18:30 0 85 13,4
41 28.9.2022 18:00 0 84 13,4
42 28.9.2022 17:30 0 84 13,4
43 28.9.2022 17:00 0 82,7 13,5
44 28.9.2022 16:30 0 83 13,4
45 28.9.2022 16:00 0 86 13,3
46 28.9.2022 15:30 0,2 88,3 13,1